createdAt,value
2022-10-31T00:02:03.799Z,65.38
2022-10-31T00:04:31.191Z,71.18
2022-10-31T00:06:59.939Z,67.43
2022-10-31T00:09:30.497Z,66.28
2022-10-31T00:11:59.965Z,64.47
2022-10-31T00:14:33.204Z,70.53
2022-10-31T00:17:01.179Z,69.90
2022-10-31T00:19:29.971Z,69.63
2022-10-31T00:22:00.858Z,68.78
2022-10-31T00:24:32.381Z,67.30
2022-10-31T00:27:00.426Z,71.18
2022-10-31T00:29:30.540Z,74.57
2022-10-31T00:31:59.327Z,92.07
2022-10-31T00:34:32.930Z,71.57
2022-10-31T00:37:04.060Z,65.73
2022-10-31T00:39:37.721Z,64.78
2022-10-31T00:42:07.686Z,65.43
2022-10-31T00:44:45.084Z,65.68
2022-10-31T00:47:13.535Z,67.80
2022-10-31T00:49:44.350Z,66.63
2022-10-31T00:52:13.435Z,69.35
2022-10-31T00:54:43.976Z,67.75
2022-10-31T00:57:13.760Z,68.97
2022-10-31T00:59:42.745Z,68.55
2022-10-31T01:02:13.239Z,64.38
2022-10-31T01:04:44.753Z,68.22
2022-10-31T01:07:17.614Z,68.22
2022-10-31T01:09:46.336Z,73.07
2022-10-31T01:12:17.897Z,70.85
2022-10-31T01:14:50.969Z,74.32
2022-10-31T01:17:26.880Z,72.78
2022-10-31T01:20:08.863Z,71.32
2022-10-31T01:22:37.660Z,72.32
2022-10-31T01:25:08.794Z,70.45
2022-10-31T01:30:21.284Z,73.30
2022-10-31T01:32:57.680Z,81.22
2022-10-31T01:35:27.779Z,89.55
2022-10-31T01:37:57.939Z,81.45
2022-10-31T01:40:31.616Z,74.88
2022-10-31T01:42:59.673Z,78.53
2022-10-31T01:45:32.157Z,76.32
2022-10-31T01:48:02.896Z,77.55
2022-10-31T01:50:39.645Z,79.45
2022-10-31T01:53:12.556Z,73.18
2022-10-31T01:55:45.057Z,74.72
2022-10-31T01:58:30.713Z,73.15
2022-10-31T02:01:13.855Z,71.35
2022-10-31T02:03:44.618Z,76.63
2022-10-31T02:06:39.582Z,71.85
2022-10-31T02:09:10.891Z,69.65
2022-10-31T02:11:45.998Z,68.35
2022-10-31T02:14:17.691Z,73.75
2022-10-31T02:16:47.467Z,76.95
2022-10-31T02:19:38.173Z,77.32
2022-10-31T02:23:03.037Z,73.57
2022-10-31T02:26:10.331Z,77.80
2022-10-31T02:29:30.055Z,77.13
2022-10-31T02:32:17.219Z,75.60
2022-10-31T02:35:09.942Z,71.68
2022-10-31T02:37:43.183Z,73.88
2022-10-31T02:40:28.888Z,53.57
2022-10-31T02:43:47.974Z,76.53
2022-10-31T02:46:35.754Z,78.00
2022-10-31T02:49:14.013Z,74.55
2022-10-31T02:51:45.275Z,71.45
2022-10-31T02:54:27.077Z,69.30
2022-10-31T02:57:08.622Z,70.43
2022-10-31T02:59:38.808Z,70.05
2022-10-31T03:02:12.319Z,67.72
2022-10-31T03:05:15.211Z,70.38
2022-10-31T03:08:18.211Z,69.13
2022-10-31T03:10:59.771Z,65.60
2022-10-31T03:13:55.619Z,68.80
2022-10-31T03:16:49.872Z,68.40
2022-10-31T03:19:40.723Z,70.22
2022-10-31T03:22:32.610Z,72.22
2022-10-31T03:25:07.867Z,66.10
2022-10-31T03:27:45.522Z,64.20
2022-10-31T03:30:18.936Z,62.58
2022-10-31T03:32:59.954Z,62.10
2022-10-31T03:35:36.254Z,61.35
2022-10-31T03:38:09.417Z,60.97
2022-10-31T03:40:45.131Z,60.42
2022-10-31T03:43:19.134Z,60.80
2022-10-31T03:45:49.240Z,60.72
2022-10-31T03:48:21.510Z,60.55
2022-10-31T03:51:17.938Z,63.55
2022-10-31T03:56:39.899Z,64.05
2022-10-31T03:59:34.227Z,65.78
2022-10-31T04:02:20.892Z,62.95
2022-10-31T04:04:51.940Z,65.63
2022-10-31T04:07:23.167Z,67.60
2022-10-31T04:09:53.864Z,68.35
2022-10-31T04:12:26.221Z,66.45
2022-10-31T04:15:16.925Z,63.75
2022-10-31T04:17:48.708Z,67.68
2022-10-31T04:20:35.157Z,66.82
2022-10-31T04:23:13.828Z,66.43
2022-10-31T04:25:44.821Z,68.18
2022-10-31T04:28:14.150Z,68.07
2022-10-31T04:30:43.663Z,69.07
2022-10-31T04:33:16.544Z,64.50
2022-10-31T04:35:49.057Z,49.87
2022-10-31T04:38:17.590Z,73.10
2022-10-31T04:40:48.893Z,71.38
2022-10-31T04:46:10.744Z,68.57
2022-10-31T04:48:39.589Z,72.80
2022-10-31T04:51:12.628Z,70.28
2022-10-31T04:53:42.444Z,71.07
2022-10-31T04:56:28.746Z,67.38
2022-10-31T04:58:59.585Z,70.20
2022-10-31T05:01:30.612Z,73.75
2022-10-31T05:04:01.390Z,69.20
2022-10-31T05:06:34.701Z,77.53
2022-10-31T05:09:06.207Z,70.10
2022-10-31T05:11:39.812Z,69.78
2022-10-31T05:14:31.812Z,70.88
2022-10-31T05:17:23.242Z,64.88
2022-10-31T05:20:22.973Z,66.75
2022-10-31T05:23:14.284Z,63.15
2022-10-31T05:25:45.352Z,65.03
2022-10-31T05:28:14.057Z,67.13
2022-10-31T05:30:44.040Z,64.13
2022-10-31T05:33:19.229Z,64.85
2022-10-31T05:36:08.490Z,63.70
2022-10-31T05:39:01.909Z,64.63
2022-10-31T05:41:53.664Z,66.60
2022-10-31T05:44:29.195Z,69.57
2022-10-31T05:47:19.953Z,64.00
2022-10-31T05:49:59.083Z,67.88
2022-10-31T05:52:59.509Z,65.55
2022-10-31T05:55:41.926Z,65.55
2022-10-31T05:58:18.353Z,65.20
2022-10-31T06:00:56.435Z,68.25
2022-10-31T06:03:25.363Z,62.50
2022-10-31T06:06:05.129Z,69.28
2022-10-31T06:08:46.979Z,68.43
2022-10-31T06:11:20.288Z,67.53
2022-10-31T06:14:09.756Z,68.13
2022-10-31T06:16:59.166Z,68.82
2022-10-31T06:20:06.215Z,66.30
2022-10-31T06:22:39.344Z,65.70
2022-10-31T06:25:08.417Z,68.35
2022-10-31T06:27:42.686Z,70.97
2022-10-31T06:30:16.132Z,74.07
2022-10-31T06:32:46.815Z,77.05
2022-10-31T06:35:21.245Z,78.30
2022-10-31T06:37:53.171Z,73.63
2022-10-31T06:40:31.057Z,73.75
2022-10-31T06:43:21.788Z,74.13
2022-10-31T06:45:52.564Z,80.72
2022-10-31T06:48:38.401Z,76.00
2022-10-31T06:51:30.708Z,75.70
2022-10-31T06:53:58.584Z,75.65
2022-10-31T06:56:30.117Z,72.53
2022-10-31T06:59:02.296Z,80.35
2022-10-31T07:01:50.345Z,75.50
2022-10-31T07:04:18.643Z,75.32
2022-10-31T07:06:50.896Z,71.90
2022-10-31T07:16:22.291Z,68.40
2022-10-31T07:18:55.467Z,67.18
2022-10-31T07:21:25.751Z,70.28
2022-10-31T07:23:58.852Z,71.90
2022-10-31T07:26:47.767Z,77.25
2022-10-31T07:29:17.732Z,101.60
2022-10-31T07:31:48.960Z,93.07
2022-10-31T07:34:44.901Z,87.03
2022-10-31T07:37:32.603Z,80.80
2022-10-31T07:40:19.276Z,78.93
2022-10-31T07:42:54.964Z,86.18
2022-10-31T07:45:44.500Z,83.78
2022-10-31T07:48:34.573Z,81.47
2022-10-31T07:51:28.420Z,78.25
2022-10-31T07:54:23.147Z,74.40
2022-10-31T07:56:53.125Z,78.13
2022-10-31T07:59:28.947Z,80.70
2022-10-31T08:01:57.746Z,76.90
2022-10-31T08:04:44.988Z,77.65
2022-10-31T08:07:52.162Z,76.43
2022-10-31T08:10:27.660Z,78.90
2022-10-31T08:13:07.965Z,79.03
2022-10-31T08:15:45.800Z,82.82
2022-10-31T08:18:16.157Z,77.45
2022-10-31T08:20:48.956Z,84.20
2022-10-31T08:23:19.480Z,78.13
2022-10-31T08:25:53.422Z,80.32
2022-10-31T08:28:26.098Z,78.90
2022-10-31T08:30:56.207Z,72.22
2022-10-31T08:33:44.346Z,78.22
2022-10-31T08:36:33.288Z,75.78
2022-10-31T08:39:33.158Z,76.35
2022-10-31T08:42:05.976Z,81.35
2022-10-31T08:44:40.413Z,87.10
2022-10-31T08:47:13.116Z,83.65
2022-10-31T08:49:46.905Z,83.53
2022-10-31T08:52:44.165Z,82.60
2022-10-31T08:55:19.591Z,80.63
2022-10-31T08:58:06.311Z,79.35
2022-10-31T09:00:55.132Z,77.43
2022-10-31T09:03:27.865Z,78.72
2022-10-31T09:06:04.732Z,79.53
2022-10-31T09:08:34.745Z,77.32
2022-10-31T09:11:13.834Z,76.45
2022-10-31T09:14:06.580Z,76.20
2022-10-31T09:17:11.217Z,77.72
2022-10-31T09:20:03.807Z,73.25
2022-10-31T09:22:37.474Z,76.45
2022-10-31T09:25:10.745Z,78.32
2022-10-31T09:27:49.717Z,79.05
2022-10-31T09:30:36.867Z,79.25
2022-10-31T09:33:16.560Z,76.95
2022-10-31T09:35:58.918Z,76.55
2022-10-31T09:38:32.563Z,78.15
2022-10-31T09:41:54.518Z,74.28
2022-10-31T09:45:14.467Z,80.38
2022-10-31T09:48:18.931Z,75.55
2022-10-31T09:51:34.445Z,77.03
2022-10-31T09:54:30.483Z,73.45
2022-10-31T09:57:11.770Z,77.43
2022-10-31T09:59:50.486Z,83.60
2022-10-31T10:02:33.525Z,78.15
2022-10-31T10:05:11.595Z,79.10
2022-10-31T10:08:06.983Z,79.18
2022-10-31T10:11:30.638Z,92.38
2022-10-31T10:14:23.144Z,86.15
2022-10-31T10:17:25.025Z,84.18
2022-10-31T10:20:12.724Z,93.32
2022-10-31T10:23:25.362Z,92.95
2022-10-31T10:26:13.068Z,92.75
2022-10-31T10:29:18.663Z,89.90
2022-10-31T10:31:51.136Z,90.22
2022-10-31T10:34:33.212Z,92.30
2022-10-31T10:37:37.517Z,87.28
2022-10-31T10:40:31.765Z,90.82
2022-10-31T10:43:23.442Z,87.13
2022-10-31T10:46:33.818Z,87.38
2022-10-31T10:49:21.049Z,86.75
2022-10-31T10:52:46.052Z,81.43
2022-10-31T10:55:41.109Z,86.82
2022-10-31T10:58:20.572Z,85.47
2022-10-31T11:00:55.412Z,90.07
2022-10-31T11:03:28.074Z,88.63
2022-10-31T11:06:03.623Z,82.68
2022-10-31T11:08:37.856Z,84.10
2022-10-31T11:11:10.681Z,86.80
2022-10-31T11:13:46.995Z,78.57
2022-10-31T11:19:33.202Z,84.55
2022-10-31T11:22:20.753Z,85.70
2022-10-31T11:24:50.347Z,78.90
2022-10-31T11:27:23.672Z,63.00
2022-10-31T11:30:06.864Z,77.25
2022-10-31T11:32:50.684Z,82.10
2022-10-31T11:35:27.175Z,81.15
2022-10-31T11:38:00.192Z,79.93
2022-10-31T11:40:29.068Z,77.85
2022-10-31T11:43:02.968Z,76.55
2022-10-31T11:45:38.542Z,77.05
2022-10-31T11:48:18.858Z,81.65
2022-10-31T11:50:57.381Z,75.65
2022-10-31T11:53:33.408Z,77.30
2022-10-31T11:56:19.383Z,73.50
2022-10-31T11:58:58.866Z,80.85
2022-10-31T12:01:32.991Z,79.22
2022-10-31T12:04:07.025Z,81.30
2022-10-31T12:06:47.896Z,75.38
2022-10-31T12:09:39.079Z,76.70
2022-10-31T12:12:44.770Z,74.28
2022-10-31T12:15:50.370Z,74.50
2022-10-31T12:18:34.390Z,70.35
2022-10-31T12:21:50.850Z,70.43
2022-10-31T12:24:44.627Z,70.18
2022-10-31T12:27:50.209Z,65.47
2022-10-31T12:30:34.227Z,71.78
2022-10-31T12:33:44.128Z,75.18
2022-10-31T12:36:41.055Z,76.70
2022-10-31T12:39:50.552Z,74.40
2022-10-31T12:42:25.877Z,74.72
2022-10-31T12:45:20.503Z,73.68
2022-10-31T12:48:12.600Z,70.68
2022-10-31T12:50:47.363Z,71.85
2022-10-31T12:53:37.512Z,69.57
2022-10-31T12:56:41.596Z,64.03
2022-10-31T12:59:15.895Z,69.95
2022-10-31T13:02:01.752Z,63.20
2022-10-31T13:05:18.480Z,60.15
2022-10-31T13:08:26.921Z,56.65
2022-10-31T13:11:24.991Z,53.58
2022-10-31T13:14:08.818Z,58.92
2022-10-31T13:16:47.836Z,62.03
2022-10-31T13:19:23.807Z,47.65
2022-10-31T13:22:20.151Z,48.90
2022-10-31T13:25:19.243Z,50.22
2022-10-31T13:28:17.122Z,50.33
2022-10-31T13:30:50.403Z,50.72
2022-10-31T13:33:31.668Z,46.08
2022-10-31T13:39:03.396Z,52.40
2022-10-31T13:42:14.824Z,47.03
2022-10-31T13:44:52.479Z,54.92
2022-10-31T13:47:34.447Z,50.70
2022-10-31T13:50:25.127Z,45.67
2022-10-31T13:53:06.911Z,47.30
2022-10-31T13:55:47.397Z,42.45
2022-10-31T13:58:36.791Z,54.40
2022-10-31T14:01:26.697Z,54.13
2022-10-31T14:04:25.535Z,50.78
2022-10-31T14:07:29.794Z,51.60
2022-10-31T14:10:32.239Z,56.42
2022-10-31T14:13:20.204Z,55.83
2022-10-31T14:16:06.327Z,57.38
2022-10-31T14:18:40.026Z,52.90
2022-10-31T14:21:50.823Z,56.60
2022-10-31T14:24:35.913Z,60.95
2022-10-31T14:27:31.269Z,71.25
2022-10-31T14:30:28.545Z,63.35
2022-10-31T14:33:03.143Z,60.60
2022-10-31T14:35:56.039Z,63.85
2022-10-31T14:38:52.830Z,66.45
2022-10-31T14:42:10.948Z,68.22
2022-10-31T14:45:05.202Z,69.57
2022-10-31T14:48:10.027Z,70.88
2022-10-31T14:51:22.379Z,68.85
2022-10-31T14:54:01.618Z,73.50
2022-10-31T14:56:37.610Z,75.28
2022-10-31T15:02:21.944Z,83.63
2022-10-31T15:05:17.811Z,78.63
2022-10-31T15:08:01.167Z,79.70
2022-10-31T15:10:40.416Z,82.85
2022-10-31T15:13:28.931Z,77.45
2022-10-31T15:16:04.944Z,78.25
2022-10-31T15:21:09.921Z,76.97
2022-10-31T15:23:50.566Z,81.03
2022-10-31T15:26:44.374Z,81.60
2022-10-31T15:29:17.461Z,74.85
2022-10-31T15:32:07.909Z,79.75
2022-10-31T15:34:46.420Z,76.28
2022-10-31T15:37:29.862Z,80.80
2022-10-31T15:40:15.427Z,75.35
2022-10-31T15:42:52.740Z,78.00
2022-10-31T15:45:28.248Z,80.20
2022-10-31T15:48:06.054Z,79.57
2022-10-31T15:50:51.430Z,77.07
2022-10-31T15:53:28.721Z,78.63
2022-10-31T15:56:15.644Z,76.55
2022-10-31T15:58:50.953Z,76.10
2022-10-31T16:04:16.426Z,80.88
2022-10-31T16:06:47.030Z,78.63
2022-10-31T16:09:37.061Z,78.85
2022-10-31T16:12:19.931Z,82.50
2022-10-31T16:14:57.307Z,79.80
2022-10-31T16:17:30.011Z,77.85
2022-10-31T16:20:16.282Z,84.05
2022-10-31T16:22:51.773Z,76.57
2022-10-31T16:25:40.730Z,79.75
2022-10-31T16:28:30.249Z,78.72
2022-10-31T16:31:03.754Z,80.85
2022-10-31T16:33:43.000Z,81.05
2022-10-31T16:36:51.626Z,83.30
2022-10-31T16:39:28.212Z,80.32
2022-10-31T16:42:00.337Z,83.25
2022-10-31T16:44:31.627Z,80.43
2022-10-31T16:47:19.721Z,82.30
2022-10-31T16:49:55.286Z,78.53
2022-10-31T16:52:27.257Z,82.50
2022-10-31T16:55:01.059Z,81.03
2022-10-31T16:57:43.026Z,79.25
2022-10-31T17:00:23.811Z,81.88
2022-10-31T17:02:59.809Z,81.35
2022-10-31T17:05:48.566Z,82.35
2022-10-31T17:08:18.857Z,83.70
2022-10-31T17:11:02.344Z,80.50
2022-10-31T17:13:34.672Z,79.47
2022-10-31T17:16:06.689Z,81.45
2022-10-31T17:18:37.119Z,77.65
2022-10-31T17:21:08.402Z,80.53
2022-10-31T17:23:39.188Z,86.32
2022-10-31T17:26:14.011Z,79.55
2022-10-31T17:28:44.503Z,83.40
2022-10-31T17:31:33.253Z,74.75
2022-10-31T17:34:12.669Z,75.93
2022-10-31T17:36:55.010Z,73.03
2022-10-31T17:39:30.389Z,74.82
2022-10-31T17:42:00.645Z,71.55
2022-10-31T17:44:39.392Z,71.88
2022-10-31T17:47:27.267Z,76.30
2022-10-31T17:50:02.058Z,78.15
2022-10-31T17:52:37.145Z,75.07
2022-10-31T17:55:07.064Z,74.65
2022-10-31T17:57:43.404Z,73.50
2022-10-31T18:00:15.991Z,76.75
2022-10-31T18:02:45.173Z,77.13
2022-10-31T18:05:16.501Z,76.32
2022-10-31T18:07:59.393Z,75.60
2022-10-31T18:10:33.157Z,79.00
2022-10-31T18:13:04.508Z,78.38
2022-10-31T18:15:33.135Z,78.40
2022-10-31T18:18:07.998Z,79.47
2022-10-31T18:20:38.681Z,77.80
2022-10-31T18:23:12.491Z,74.78
2022-10-31T18:25:46.091Z,76.38
2022-10-31T18:28:19.843Z,76.05
2022-10-31T18:30:48.798Z,74.15
2022-10-31T18:33:25.452Z,77.18
2022-10-31T18:35:58.240Z,77.97
2022-10-31T18:38:32.401Z,75.07
2022-10-31T18:41:00.979Z,78.32
2022-10-31T18:43:31.406Z,80.78
2022-10-31T18:46:11.863Z,81.35
2022-10-31T18:48:45.838Z,81.45
2022-10-31T18:51:28.521Z,79.13
2022-10-31T18:54:06.090Z,74.40
2022-10-31T18:56:35.028Z,73.03
2022-10-31T18:59:04.823Z,73.97
2022-10-31T19:01:36.368Z,74.50
2022-10-31T19:04:09.525Z,72.18
2022-10-31T19:06:40.902Z,73.65
2022-10-31T19:09:13.953Z,79.85
2022-10-31T19:11:42.782Z,70.97
2022-10-31T19:14:16.193Z,67.75
2022-10-31T19:16:43.914Z,69.13
2022-10-31T19:19:15.904Z,68.65
2022-10-31T19:21:52.751Z,68.18
2022-10-31T19:24:22.442Z,68.70
2022-10-31T19:26:52.738Z,67.15
2022-10-31T19:29:29.423Z,69.97
2022-10-31T19:32:01.814Z,70.28
2022-10-31T19:34:32.015Z,74.30
2022-10-31T19:37:02.124Z,73.10
2022-10-31T19:39:33.964Z,76.47
2022-10-31T19:42:04.550Z,77.05
2022-10-31T19:44:37.714Z,78.30
2022-10-31T19:47:07.758Z,81.93
2022-10-31T19:49:40.399Z,78.78
2022-10-31T19:52:11.269Z,76.85
2022-10-31T19:54:43.915Z,77.60
2022-10-31T19:57:15.287Z,76.75
2022-10-31T19:59:47.962Z,75.88
2022-10-31T20:02:24.372Z,77.55
2022-10-31T20:05:01.995Z,77.60
2022-10-31T20:07:32.070Z,78.43
2022-10-31T20:10:01.978Z,83.00
2022-10-31T20:12:37.861Z,80.97
2022-10-31T20:15:08.896Z,74.45
2022-10-31T20:17:41.482Z,78.72
2022-10-31T20:20:11.505Z,75.10
2022-10-31T20:22:45.977Z,73.32
2022-10-31T20:25:15.320Z,79.53
2022-10-31T20:27:50.304Z,79.07
2022-10-31T20:30:29.567Z,79.28
2022-10-31T20:33:03.469Z,74.55
2022-10-31T20:35:39.828Z,76.28
2022-10-31T20:38:11.601Z,76.85
2022-10-31T20:40:41.259Z,77.13
2022-10-31T20:43:18.026Z,77.45
2022-10-31T20:45:51.532Z,79.85
2022-10-31T20:48:26.003Z,81.03
2022-10-31T20:51:12.042Z,80.43
2022-10-31T20:53:42.997Z,79.40
2022-10-31T20:56:24.287Z,77.65
2022-10-31T20:58:57.041Z,77.43
2022-10-31T21:01:36.775Z,75.07
2022-10-31T21:04:20.806Z,77.38
2022-10-31T21:06:55.318Z,74.78
2022-10-31T21:09:29.853Z,79.35
2022-10-31T21:12:04.146Z,75.85
2022-10-31T21:14:34.539Z,76.38
2022-10-31T21:17:05.253Z,75.20
2022-10-31T21:19:37.557Z,75.15
2022-10-31T21:22:10.529Z,74.95
2022-10-31T21:24:42.727Z,75.80
2022-10-31T21:27:15.070Z,78.53
2022-10-31T21:29:48.608Z,76.90
2022-10-31T21:32:22.996Z,75.90
2022-10-31T21:34:55.799Z,72.20
2022-10-31T21:37:24.110Z,55.55
2022-10-31T21:39:56.943Z,65.50
2022-10-31T21:42:29.727Z,64.35
2022-10-31T21:44:58.506Z,59.63
2022-10-31T21:47:29.781Z,61.53
2022-10-31T21:50:01.439Z,56.83
2022-10-31T21:52:34.021Z,60.33
2022-10-31T21:55:07.648Z,58.05
2022-10-31T21:57:41.635Z,56.17
2022-10-31T22:00:14.240Z,54.28
2022-10-31T22:02:48.835Z,50.80
2022-10-31T22:05:22.147Z,47.33
2022-10-31T22:07:54.423Z,47.97
2022-10-31T22:10:27.042Z,47.03
2022-10-31T22:13:01.098Z,43.30
2022-10-31T22:15:35.181Z,41.30
2022-10-31T22:18:04.551Z,41.63
2022-10-31T22:20:39.364Z,41.08
2022-10-31T22:23:13.420Z,40.42
2022-10-31T22:25:43.663Z,39.75
2022-10-31T22:28:14.912Z,37.75
2022-10-31T22:31:00.356Z,37.67
2022-10-31T22:33:30.768Z,36.75
2022-10-31T22:36:11.349Z,38.30
2022-10-31T22:38:43.367Z,38.88
2022-10-31T22:43:57.145Z,37.85
2022-10-31T22:46:28.609Z,40.67
2022-10-31T22:49:02.236Z,39.15
2022-10-31T22:51:36.358Z,38.83
2022-10-31T22:54:22.531Z,38.00
2022-10-31T22:56:52.318Z,37.65
2022-10-31T22:59:24.306Z,37.35
2022-10-31T23:01:54.338Z,37.63
2022-10-31T23:04:24.173Z,39.75
2022-10-31T23:06:52.365Z,38.67
2022-10-31T23:09:20.010Z,38.72
2022-10-31T23:11:53.983Z,38.05
2022-10-31T23:14:24.696Z,34.60
2022-10-31T23:17:07.061Z,35.85
2022-10-31T23:19:41.864Z,33.75
2022-10-31T23:22:14.625Z,36.28
2022-10-31T23:24:47.075Z,35.70
2022-10-31T23:27:23.565Z,35.95
2022-10-31T23:30:01.518Z,37.55
2022-10-31T23:32:32.818Z,36.90
2022-10-31T23:35:10.912Z,34.65
2022-10-31T23:37:45.519Z,37.08
2022-10-31T23:40:16.192Z,35.60
2022-10-31T23:42:51.874Z,38.60
2022-10-31T23:45:29.775Z,35.28
2022-10-31T23:48:01.173Z,38.97
2022-10-31T23:50:32.205Z,37.88
2022-10-31T23:53:14.912Z,36.95
2022-10-31T23:55:48.050Z,36.58
2022-10-31T23:58:20.835Z,34.90
